No es requerida especial atención con respecto al clima.   -   No hay avisos meteorológicos

Informes METAR

 

LEZL - Sevilla, Spain
Distancia de la estación: ESE 25km
Actualización: 20/09/2018 13:30
Despejado
Despejado
 Viento de NE
Viento: NE 4 km/h
Temperatura: 30°C
Índice de calor: 31°C
Rocío: 18°C
Humedad: 49%
Barómetro: 1018 hPa
Resumen: Despejado
Visibilidad: mayor de 10 km
2018/09/20 11:30 LEZL 201130Z 05002KT CAVOK 30/18 Q1018 NOSIG
LEMO - Morón, Spain
Distancia de la estación: SE 65km
Actualización: 20/09/2018 13:00
Parcialmente nuboso
Parcialmente nuboso
 Viento de variable
Viento: variable 7 km/h
Temperatura: 29°C
Índice de calor: 29°C
Rocío: 17°C
Humedad: 48%
Barómetro: 1019 hPa
Nubes: Parcialmente nuboso
Visibilidad: 8 km
2018/09/20 11:00 LEMO 201100Z VRB04KT 8000 NSC 29/17 Q1019 NOSIG
LEJR - Jeréz, Spain
Distancia de la estación: S 87km
Actualización: 20/09/2018 13:30
Poco nuboso
Poco nuboso
 Viento de SE
Viento: SE 7 km/h
Temperatura: 32°C
Índice de calor: 33°C
Rocío: 18°C
Humedad: 43%
Barómetro: 1019 hPa
Nubes: Poco nuboso
Visibilidad: 10 km
Detalles de las nubes: Poco nuboso 1006 m
2018/09/20 11:30 LEJR 201130Z 13004KT 050V200 9999 FEW033 32/18 Q1019
 
LERT - Rota, Spain
Distancia de la estación: S 101km
Actualización: 20/09/2018 13:00
Parcialmente nuboso
Parcialmente nuboso
 Viento de SSE
Viento: SSE 17 km/h
Temperatura: 30°C
Índice de calor: 32°C
Rocío: 20°C
Humedad: 55%
Barómetro: 1019 hPa
Nubes: Parcialmente nuboso
Visibilidad: 10 km
Detalles de las nubes: Parcialmente nuboso 792 m
2018/09/20 11:00 LERT 201100Z 15009KT 110V180 9999 SCT026 30/20 Q1019 NOSIG
LEMG - Málaga, Spain
Distancia de la estación: ESE 178km
Actualización: 20/09/2018 13:30
Parcialmente nuboso
Parcialmente nuboso
 Viento de SE
Viento: SE 13 km/h
Temperatura: 27°C
Índice de calor: 29°C
Rocío: 21°C
Humedad: 70%
Barómetro: 1020 hPa
Nubes: Parcialmente nuboso
Visibilidad: 10 km
Detalles de las nubes: Parcialmente nuboso 579 m
2018/09/20 11:30 LEMG 201130Z 13007KT 080V180 9999 SCT019 27/21 Q1020 NOSIG
LEBA - Córdoba, Spain
Distancia de la estación: ENE 123km
Actualización: 20/09/2018 13:30
Despejado
Despejado
 Viento de O
Viento: O 7 km/h
Temperatura: 31°C
Índice de calor: 32°C
Rocío: 17°C
Humedad: 43%
Barómetro: 1019 hPa
Resumen: Despejado
Visibilidad: mayor de 10 km
2018/09/20 11:30 LEBA 201130Z 26004KT 200V310 CAVOK 31/17 Q1019 NOSIG
 
LEGR - Granada, Spain
Distancia de la estación: E 215km
Actualización: 20/09/2018 13:30
Poco nuboso
Poco nuboso
 Viento de calm
Viento: Calma
Temperatura: 28°C
Índice de calor: 28°C
Rocío: 17°C
Humedad: 51%
Barómetro: 1022 hPa
Nubes: Poco nuboso
Visibilidad: 10 km
Detalles de las nubes: Poco nuboso 1524 m
2018/09/20 11:30 LEGR 201130Z 00000KT 9999 FEW050 28/17 Q1022
LEAM - Almería, Spain
Distancia de la estación: E 344km
Actualización: 20/09/2018 13:30
Poco nuboso
Poco nuboso
 Viento de SSE
Viento: SSE 17 km/h
Temperatura: 28°C
Índice de calor: 31°C
Rocío: 23°C
Humedad: 74%
Barómetro: 1020 hPa
Nubes: Poco nuboso
Visibilidad: 10 km
Detalles de las nubes: Poco nuboso 914 m
2018/09/20 11:30 LEAM 201130Z 16009KT 9999 FEW030 28/23 Q1020
GCLP - Las Palmas/Aeropuerto, Spain
Distancia de la estación: SO 1410km
Actualización: 20/09/2018 13:30
Poco nuboso
Poco nuboso
 Viento de NNE
Viento: NNE 37 km/h
Temperatura: 26°C
Rocío: 21°C
Humedad: 74%
Barómetro: 1020 hPa
Nubes: Poco nuboso
Visibilidad: 10 km
Detalles de las nubes: Poco nuboso 610 m
2018/09/20 11:30 GCLP 201130Z 03020KT 9999 FEW020 26/21 Q1020 NOSIG
 
LEMD - Madrid/Barajas, Spain
Distancia de la estación: NNE 402km
Actualización: 20/09/2018 13:30
Despejado
Despejado
 Viento de SSE
Viento: SSE 6 km/h
Temperatura: 29°C
Índice de calor: 28°C
Rocío: 14°C
Humedad: 40%
Barómetro: 1022 hPa
Resumen: Despejado
Visibilidad: mayor de 10 km
2018/09/20 11:30 LEMD 201130Z 16003KT CAVOK 29/14 Q1022 NOSIG
LEVD - Valladolid, Spain
Distancia de la estación: N 492km
Actualización: 20/09/2018 13:30
Despejado
Despejado
 Viento de SO
Viento: SO 13 km/h
Temperatura: 28°C
Rocío: 8°C
Humedad: 28%
Barómetro: 1022 hPa
Resumen: Despejado
Visibilidad: mayor de 10 km
2018/09/20 11:30 LEVD 201130Z 22007KT 180V300 CAVOK 28/08 Q1022
LEBL - Barcelona, Spain
Distancia de la estación: NE 816km
Actualización: 20/09/2018 13:30
Despejado
Despejado
 Viento de SSO
Viento: SSO 15 km/h
Temperatura: 27°C
Índice de calor: 29°C
Rocío: 20°C
Humedad: 66%
Barómetro: 1019 hPa
Resumen: Despejado
Visibilidad: mayor de 10 km
2018/09/20 11:30 LEBL 201130Z 20008KT CAVOK 27/20 Q1019 NOSIG